sensor_id;sensor_type;location;lat;lon;timestamp;temperature;humidity
4755;DHT22;2391;47.212;7.542;2023-02-23T00:01:51;11.50;99.90
4755;DHT22;2391;47.212;7.542;2023-02-23T00:04:17;11.50;99.90
4755;DHT22;2391;47.212;7.542;2023-02-23T00:06:43;11.60;99.90
4755;DHT22;2391;47.212;7.542;2023-02-23T00:09:10;11.60;99.90
4755;DHT22;2391;47.212;7.542;2023-02-23T00:11:40;11.70;99.90
4755;DHT22;2391;47.212;7.542;2023-02-23T00:14:06;11.70;99.90
4755;DHT22;2391;47.212;7.542;2023-02-23T00:16:33;11.80;99.90
4755;DHT22;2391;47.212;7.542;2023-02-23T00:18:59;11.80;99.90
4755;DHT22;2391;47.212;7.542;2023-02-23T00:21:27;11.80;99.90
4755;DHT22;2391;47.212;7.542;2023-02-23T00:23:57;11.80;99.80
4755;DHT22;2391;47.212;7.542;2023-02-23T00:26:25;11.80;99.90
4755;DHT22;2391;47.212;7.542;2023-02-23T00:28:54;11.80;99.70
4755;DHT22;2391;47.212;7.542;2023-02-23T00:31:21;11.80;99.70
4755;DHT22;2391;47.212;7.542;2023-02-23T00:33:53;11.80;99.60
4755;DHT22;2391;47.212;7.542;2023-02-23T00:36:22;11.80;99.60
4755;DHT22;2391;47.212;7.542;2023-02-23T00:38:53;11.80;99.50
4755;DHT22;2391;47.212;7.542;2023-02-23T00:41:20;11.80;99.50
4755;DHT22;2391;47.212;7.542;2023-02-23T00:43:50;11.80;99.40
4755;DHT22;2391;47.212;7.542;2023-02-23T00:46:18;11.80;99.40
4755;DHT22;2391;47.212;7.542;2023-02-23T00:48:47;11.80;99.40
4755;DHT22;2391;47.212;7.542;2023-02-23T00:51:14;11.80;99.40
4755;DHT22;2391;47.212;7.542;2023-02-23T00:53:41;11.80;99.50
4755;DHT22;2391;47.212;7.542;2023-02-23T00:56:09;11.90;99.60
4755;DHT22;2391;47.212;7.542;2023-02-23T00:58:36;11.90;99.40
4755;DHT22;2391;47.212;7.542;2023-02-23T01:01:08;11.90;99.30
4755;DHT22;2391;47.212;7.542;2023-02-23T01:03:31;12.00;99.40
4755;DHT22;2391;47.212;7.542;2023-02-23T01:06:01;12.00;99.30
4755;DHT22;2391;47.212;7.542;2023-02-23T01:08:36;12.00;99.20
4755;DHT22;2391;47.212;7.542;2023-02-23T01:11:09;12.10;99.20
4755;DHT22;2391;47.212;7.542;2023-02-23T01:13:36;12.10;99.10
4755;DHT22;2391;47.212;7.542;2023-02-23T01:16:11;12.10;99.10
4755;DHT22;2391;47.212;7.542;2023-02-23T01:18:38;12.10;99.00
4755;DHT22;2391;47.212;7.542;2023-02-23T01:21:12;12.20;99.00
4755;DHT22;2391;47.212;7.542;2023-02-23T01:23:33;12.10;98.90
4755;DHT22;2391;47.212;7.542;2023-02-23T01:25:58;12.10;99.20
4755;DHT22;2391;47.212;7.542;2023-02-23T01:28:24;12.10;99.20
4755;DHT22;2391;47.212;7.542;2023-02-23T01:30:50;12.10;99.20
4755;DHT22;2391;47.212;7.542;2023-02-23T01:33:15;12.10;99.20
4755;DHT22;2391;47.212;7.542;2023-02-23T01:35:41;12.10;99.10
4755;DHT22;2391;47.212;7.542;2023-02-23T01:38:09;12.10;99.10
4755;DHT22;2391;47.212;7.542;2023-02-23T01:40:35;12.10;99.00
4755;DHT22;2391;47.212;7.542;2023-02-23T01:43:15;12.10;99.00
4755;DHT22;2391;47.212;7.542;2023-02-23T01:45:43;12.10;99.00
4755;DHT22;2391;47.212;7.542;2023-02-23T01:48:20;12.10;98.90
4755;DHT22;2391;47.212;7.542;2023-02-23T01:50:53;12.10;99.00
4755;DHT22;2391;47.212;7.542;2023-02-23T01:53:20;12.10;98.90
4755;DHT22;2391;47.212;7.542;2023-02-23T01:55:52;12.10;98.90
4755;DHT22;2391;47.212;7.542;2023-02-23T01:58:21;12.10;98.90
4755;DHT22;2391;47.212;7.542;2023-02-23T02:00:54;12.00;98.90
4755;DHT22;2391;47.212;7.542;2023-02-23T02:05:54;12.00;98.80
4755;DHT22;2391;47.212;7.542;2023-02-23T02:08:21;12.00;98.80
4755;DHT22;2391;47.212;7.542;2023-02-23T02:10:50;12.00;98.80
4755;DHT22;2391;47.212;7.542;2023-02-23T02:13:20;12.00;98.90
4755;DHT22;2391;47.212;7.542;2023-02-23T02:32:38;12.00;98.80
4755;DHT22;2391;47.212;7.542;2023-02-23T02:43:17;11.90;98.80
4755;DHT22;2391;47.212;7.542;2023-02-23T02:45:54;11.90;98.80
4755;DHT22;2391;47.212;7.542;2023-02-23T02:53:54;11.90;98.80
4755;DHT22;2391;47.212;7.542;2023-02-23T02:56:21;11.90;98.80
4755;DHT22;2391;47.212;7.542;2023-02-23T02:58:50;11.90;98.80
4755;DHT22;2391;47.212;7.542;2023-02-23T03:01:19;11.90;98.80
4755;DHT22;2391;47.212;7.542;2023-02-23T03:04:19;11.90;99.10
4755;DHT22;2391;47.212;7.542;2023-02-23T03:07:17;11.90;98.90
4755;DHT22;2391;47.212;7.542;2023-02-23T03:10:26;11.90;98.90
4755;DHT22;2391;47.212;7.542;2023-02-23T03:13:17;11.90;98.90
4755;DHT22;2391;47.212;7.542;2023-02-23T03:16:14;11.80;98.90
4755;DHT22;2391;47.212;7.542;2023-02-23T03:25:08;11.80;98.90
4755;DHT22;2391;47.212;7.542;2023-02-23T03:31:08;11.80;99.00
4755;DHT22;2391;47.212;7.542;2023-02-23T03:36:44;11.70;99.00
4755;DHT22;2391;47.212;7.542;2023-02-23T03:42:18;11.70;98.90
4755;DHT22;2391;47.212;7.542;2023-02-23T03:45:10;11.70;98.90
4755;DHT22;2391;47.212;7.542;2023-02-23T03:47:57;11.70;98.90
4755;DHT22;2391;47.212;7.542;2023-02-23T03:50:46;11.80;99.00
4755;DHT22;2391;47.212;7.542;2023-02-23T03:53:40;11.80;98.90
4755;DHT22;2391;47.212;7.542;2023-02-23T03:56:26;11.80;98.90
4755;DHT22;2391;47.212;7.542;2023-02-23T03:59:13;11.70;98.80
4755;DHT22;2391;47.212;7.542;2023-02-23T04:02:00;11.70;98.90
4755;DHT22;2391;47.212;7.542;2023-02-23T04:04:46;11.70;98.90
4755;DHT22;2391;47.212;7.542;2023-02-23T04:07:33;11.80;98.90
4755;DHT22;2391;47.212;7.542;2023-02-23T04:10:18;11.70;98.90
4755;DHT22;2391;47.212;7.542;2023-02-23T04:13:06;11.70;98.90
4755;DHT22;2391;47.212;7.542;2023-02-23T04:18:20;11.80;99.00
4755;DHT22;2391;47.212;7.542;2023-02-23T04:20:44;11.70;98.90
4755;DHT22;2391;47.212;7.542;2023-02-23T04:23:10;11.80;99.00
4755;DHT22;2391;47.212;7.542;2023-02-23T04:25:36;11.80;99.00
4755;DHT22;2391;47.212;7.542;2023-02-23T04:28:02;11.80;98.90
4755;DHT22;2391;47.212;7.542;2023-02-23T04:30:28;11.80;98.90
4755;DHT22;2391;47.212;7.542;2023-02-23T04:32:55;11.80;98.90
4755;DHT22;2391;47.212;7.542;2023-02-23T04:35:21;11.80;98.80
4755;DHT22;2391;47.212;7.542;2023-02-23T04:37:47;11.90;98.90
4755;DHT22;2391;47.212;7.542;2023-02-23T04:40:12;11.90;98.80
4755;DHT22;2391;47.212;7.542;2023-02-23T04:42:39;11.90;98.80
4755;DHT22;2391;47.212;7.542;2023-02-23T04:45:06;11.90;99.10
4755;DHT22;2391;47.212;7.542;2023-02-23T04:47:32;11.90;98.80
4755;DHT22;2391;47.212;7.542;2023-02-23T04:49:58;11.90;98.80
4755;DHT22;2391;47.212;7.542;2023-02-23T04:52:24;11.90;98.80
4755;DHT22;2391;47.212;7.542;2023-02-23T04:54:49;11.90;98.80
4755;DHT22;2391;47.212;7.542;2023-02-23T04:57:15;11.90;98.80
4755;DHT22;2391;47.212;7.542;2023-02-23T04:59:41;11.90;98.80
4755;DHT22;2391;47.212;7.542;2023-02-23T05:02:07;11.90;98.80
4755;DHT22;2391;47.212;7.542;2023-02-23T05:04:33;11.90;98.80
4755;DHT22;2391;47.212;7.542;2023-02-23T05:07:02;11.90;98.80
4755;DHT22;2391;47.212;7.542;2023-02-23T05:09:29;11.90;98.80
4755;DHT22;2391;47.212;7.542;2023-02-23T05:11:56;11.90;98.70
4755;DHT22;2391;47.212;7.542;2023-02-23T05:14:22;11.90;98.70
4755;DHT22;2391;47.212;7.542;2023-02-23T05:16:47;11.90;98.70
4755;DHT22;2391;47.212;7.542;2023-02-23T05:19:14;11.90;98.80
4755;DHT22;2391;47.212;7.542;2023-02-23T05:21:39;11.90;98.80
4755;DHT22;2391;47.212;7.542;2023-02-23T05:24:06;11.90;98.90
4755;DHT22;2391;47.212;7.542;2023-02-23T05:26:32;11.90;98.90
4755;DHT22;2391;47.212;7.542;2023-02-23T05:28:58;11.90;98.90
4755;DHT22;2391;47.212;7.542;2023-02-23T05:31:25;11.80;98.80
4755;DHT22;2391;47.212;7.542;2023-02-23T05:33:51;11.90;98.90
4755;DHT22;2391;47.212;7.542;2023-02-23T05:36:19;11.90;98.90
4755;DHT22;2391;47.212;7.542;2023-02-23T05:38:47;11.90;98.90
4755;DHT22;2391;47.212;7.542;2023-02-23T05:41:16;11.90;98.80
4755;DHT22;2391;47.212;7.542;2023-02-23T05:43:42;11.90;98.80
4755;DHT22;2391;47.212;7.542;2023-02-23T05:46:11;11.80;98.80
4755;DHT22;2391;47.212;7.542;2023-02-23T05:48:37;11.80;98.80
4755;DHT22;2391;47.212;7.542;2023-02-23T05:51:05;11.80;98.90
4755;DHT22;2391;47.212;7.542;2023-02-23T05:53:32;11.80;98.90
4755;DHT22;2391;47.212;7.542;2023-02-23T05:55:58;11.80;98.90
4755;DHT22;2391;47.212;7.542;2023-02-23T05:58:24;11.80;98.90
4755;DHT22;2391;47.212;7.542;2023-02-23T06:00:50;11.80;98.90
4755;DHT22;2391;47.212;7.542;2023-02-23T06:03:16;11.80;99.00
4755;DHT22;2391;47.212;7.542;2023-02-23T06:05:48;11.80;99.00
4755;DHT22;2391;47.212;7.542;2023-02-23T06:08:14;11.80;99.10
4755;DHT22;2391;47.212;7.542;2023-02-23T06:10:40;11.80;99.10
4755;DHT22;2391;47.212;7.542;2023-02-23T06:13:05;11.80;99.10
4755;DHT22;2391;47.212;7.542;2023-02-23T06:15:31;11.80;99.10
4755;DHT22;2391;47.212;7.542;2023-02-23T06:17:57;11.80;99.00
4755;DHT22;2391;47.212;7.542;2023-02-23T06:54:03;11.40;99.40
4755;DHT22;2391;47.212;7.542;2023-02-23T06:56:28;11.40;99.50
4755;DHT22;2391;47.212;7.542;2023-02-23T06:58:54;11.40;99.50
4755;DHT22;2391;47.212;7.542;2023-02-23T07:01:20;11.50;99.50
4755;DHT22;2391;47.212;7.542;2023-02-23T07:03:46;11.50;99.40
4755;DHT22;2391;47.212;7.542;2023-02-23T07:06:12;11.60;99.40
4755;DHT22;2391;47.212;7.542;2023-02-23T07:08:38;11.60;99.30
4755;DHT22;2391;47.212;7.542;2023-02-23T07:11:08;11.70;99.20
4755;DHT22;2391;47.212;7.542;2023-02-23T07:13:35;11.70;99.10
4755;DHT22;2391;47.212;7.542;2023-02-23T07:16:01;11.70;99.10
4755;DHT22;2391;47.212;7.542;2023-02-23T07:18:28;11.80;99.00
4755;DHT22;2391;47.212;7.542;2023-02-23T07:20:53;11.80;99.00
4755;DHT22;2391;47.212;7.542;2023-02-23T07:23:19;11.80;99.10
4755;DHT22;2391;47.212;7.542;2023-02-23T07:25:49;11.80;99.10
4755;DHT22;2391;47.212;7.542;2023-02-23T07:28:15;11.80;99.10
4755;DHT22;2391;47.212;7.542;2023-02-23T07:30:41;11.70;99.20
4755;DHT22;2391;47.212;7.542;2023-02-23T07:33:07;11.70;99.30
4755;DHT22;2391;47.212;7.542;2023-02-23T07:35:32;11.80;99.40
4755;DHT22;2391;47.212;7.542;2023-02-23T07:37:58;11.80;99.50
4755;DHT22;2391;47.212;7.542;2023-02-23T07:40:24;11.80;99.40
4755;DHT22;2391;47.212;7.542;2023-02-23T07:42:51;11.80;99.60
4755;DHT22;2391;47.212;7.542;2023-02-23T07:45:17;11.70;99.60
4755;DHT22;2391;47.212;7.542;2023-02-23T07:47:43;11.80;99.80
4755;DHT22;2391;47.212;7.542;2023-02-23T07:50:10;11.80;99.80
4755;DHT22;2391;47.212;7.542;2023-02-23T07:52:41;11.80;99.70
4755;DHT22;2391;47.212;7.542;2023-02-23T07:55:07;11.70;99.90
4755;DHT22;2391;47.212;7.542;2023-02-23T07:57:33;11.70;99.90
4755;DHT22;2391;47.212;7.542;2023-02-23T07:59:59;11.60;99.90
4755;DHT22;2391;47.212;7.542;2023-02-23T08:02:26;11.50;99.90
4755;DHT22;2391;47.212;7.542;2023-02-23T08:04:54;11.40;99.90
4755;DHT22;2391;47.212;7.542;2023-02-23T08:07:21;11.30;99.90
4755;DHT22;2391;47.212;7.542;2023-02-23T08:09:47;11.30;99.90
4755;DHT22;2391;47.212;7.542;2023-02-23T08:12:14;11.30;99.90
4755;DHT22;2391;47.212;7.542;2023-02-23T08:14:41;11.30;99.90
4755;DHT22;2391;47.212;7.542;2023-02-23T08:17:08;11.30;99.90
4755;DHT22;2391;47.212;7.542;2023-02-23T08:19:34;11.30;99.90
4755;DHT22;2391;47.212;7.542;2023-02-23T08:22:02;11.30;99.90
4755;DHT22;2391;47.212;7.542;2023-02-23T08:24:28;11.50;99.90
4755;DHT22;2391;47.212;7.542;2023-02-23T08:26:56;11.60;99.90
4755;DHT22;2391;47.212;7.542;2023-02-23T08:29:22;11.50;99.90
4755;DHT22;2391;47.212;7.542;2023-02-23T08:31:49;11.50;99.90
4755;DHT22;2391;47.212;7.542;2023-02-23T08:34:17;11.50;99.90
4755;DHT22;2391;47.212;7.542;2023-02-23T08:36:43;11.50;99.90
4755;DHT22;2391;47.212;7.542;2023-02-23T08:39:11;11.60;99.90
4755;DHT22;2391;47.212;7.542;2023-02-23T08:41:37;11.60;99.90
4755;DHT22;2391;47.212;7.542;2023-02-23T08:44:03;11.70;99.90
4755;DHT22;2391;47.212;7.542;2023-02-23T08:46:30;11.80;99.90
4755;DHT22;2391;47.212;7.542;2023-02-23T08:48:56;11.80;99.90
4755;DHT22;2391;47.212;7.542;2023-02-23T08:51:22;11.90;99.90
4755;DHT22;2391;47.212;7.542;2023-02-23T08:53:48;11.90;99.90
4755;DHT22;2391;47.212;7.542;2023-02-23T08:56:14;11.90;99.90
4755;DHT22;2391;47.212;7.542;2023-02-23T08:58:40;11.90;99.90
4755;DHT22;2391;47.212;7.542;2023-02-23T09:01:05;12.00;99.90
4755;DHT22;2391;47.212;7.542;2023-02-23T09:03:32;11.90;99.90
4755;DHT22;2391;47.212;7.542;2023-02-23T09:06:09;11.90;99.90
4755;DHT22;2391;47.212;7.542;2023-02-23T09:08:36;11.90;99.90
4755;DHT22;2391;47.212;7.542;2023-02-23T09:11:02;11.90;99.90
4755;DHT22;2391;47.212;7.542;2023-02-23T09:13:27;11.90;99.90
4755;DHT22;2391;47.212;7.542;2023-02-23T09:15:53;11.80;99.90
4755;DHT22;2391;47.212;7.542;2023-02-23T09:18:19;11.80;99.90
4755;DHT22;2391;47.212;7.542;2023-02-23T09:20:47;11.70;99.90
4755;DHT22;2391;47.212;7.542;2023-02-23T09:23:13;11.70;99.90
4755;DHT22;2391;47.212;7.542;2023-02-23T09:25:41;11.70;99.90
4755;DHT22;2391;47.212;7.542;2023-02-23T09:28:10;11.60;99.90
4755;DHT22;2391;47.212;7.542;2023-02-23T09:30:36;11.70;99.90
4755;DHT22;2391;47.212;7.542;2023-02-23T09:33:02;11.60;99.90
4755;DHT22;2391;47.212;7.542;2023-02-23T09:35:28;11.60;99.90
4755;DHT22;2391;47.212;7.542;2023-02-23T09:37:55;11.50;99.90
4755;DHT22;2391;47.212;7.542;2023-02-23T09:40:24;11.50;99.90
4755;DHT22;2391;47.212;7.542;2023-02-23T09:45:37;11.70;99.90
4755;DHT22;2391;47.212;7.542;2023-02-23T09:48:06;11.70;99.90
4755;DHT22;2391;47.212;7.542;2023-02-23T09:50:33;11.70;99.90
4755;DHT22;2391;47.212;7.542;2023-02-23T09:53:09;11.80;99.90
4755;DHT22;2391;47.212;7.542;2023-02-23T09:55:34;11.80;99.90
4755;DHT22;2391;47.212;7.542;2023-02-23T09:58:14;11.70;99.90
4755;DHT22;2391;47.212;7.542;2023-02-23T10:00:39;11.80;99.90
4755;DHT22;2391;47.212;7.542;2023-02-23T10:03:23;11.90;99.90
4755;DHT22;2391;47.212;7.542;2023-02-23T10:05:59;12.00;99.90
4755;DHT22;2391;47.212;7.542;2023-02-23T10:08:40;12.10;99.90
4755;DHT22;2391;47.212;7.542;2023-02-23T10:11:12;12.10;99.90
4755;DHT22;2391;47.212;7.542;2023-02-23T10:16:45;12.30;99.90
4755;DHT22;2391;47.212;7.542;2023-02-23T10:19:15;12.20;99.90
4755;DHT22;2391;47.212;7.542;2023-02-23T10:21:42;12.20;99.90
4755;DHT22;2391;47.212;7.542;2023-02-23T10:24:15;12.20;99.90
4755;DHT22;2391;47.212;7.542;2023-02-23T10:26:46;12.20;99.90
4755;DHT22;2391;47.212;7.542;2023-02-23T10:31:59;12.20;99.90
4755;DHT22;2391;47.212;7.542;2023-02-23T10:34:27;12.20;99.90
4755;DHT22;2391;47.212;7.542;2023-02-23T10:37:04;12.20;99.90
4755;DHT22;2391;47.212;7.542;2023-02-23T10:39:28;12.10;99.30
4755;DHT22;2391;47.212;7.542;2023-02-23T10:42:02;12.00;99.20
4755;DHT22;2391;47.212;7.542;2023-02-23T10:44:26;11.90;99.90
4755;DHT22;2391;47.212;7.542;2023-02-23T10:47:06;11.90;99.70
4755;DHT22;2391;47.212;7.542;2023-02-23T10:49:45;11.90;99.00
4755;DHT22;2391;47.212;7.542;2023-02-23T10:52:14;11.80;98.90
4755;DHT22;2391;47.212;7.542;2023-02-23T10:54:48;11.90;99.20
4755;DHT22;2391;47.212;7.542;2023-02-23T10:57:24;12.00;99.80
4755;DHT22;2391;47.212;7.542;2023-02-23T11:00:04;12.20;99.90
4755;DHT22;2391;47.212;7.542;2023-02-23T11:02:29;12.40;99.60
4755;DHT22;2391;47.212;7.542;2023-02-23T11:04:57;12.60;98.90
4755;DHT22;2391;47.212;7.542;2023-02-23T11:07:31;12.80;99.00
4755;DHT22;2391;47.212;7.542;2023-02-23T11:09:59;13.00;99.00
4755;DHT22;2391;47.212;7.542;2023-02-23T11:12:37;13.10;98.80
4755;DHT22;2391;47.212;7.542;2023-02-23T11:23:25;13.40;98.20
4755;DHT22;2391;47.212;7.542;2023-02-23T11:26:03;13.40;98.10
4755;DHT22;2391;47.212;7.542;2023-02-23T11:28:29;13.40;97.70
4755;DHT22;2391;47.212;7.542;2023-02-23T11:31:19;13.50;97.70
4755;DHT22;2391;47.212;7.542;2023-02-23T11:33:47;13.60;97.90
4755;DHT22;2391;47.212;7.542;2023-02-23T11:36:17;13.60;97.80
4755;DHT22;2391;47.212;7.542;2023-02-23T11:38:45;13.60;97.60
4755;DHT22;2391;47.212;7.542;2023-02-23T11:41:22;13.70;97.50
4755;DHT22;2391;47.212;7.542;2023-02-23T11:43:57;13.70;97.60
4755;DHT22;2391;47.212;7.542;2023-02-23T11:46:24;13.80;97.10
4755;DHT22;2391;47.212;7.542;2023-02-23T11:48:59;13.80;97.00
4755;DHT22;2391;47.212;7.542;2023-02-23T11:51:29;13.80;97.30
4755;DHT22;2391;47.212;7.542;2023-02-23T11:53:56;13.80;97.40
4755;DHT22;2391;47.212;7.542;2023-02-23T11:56:23;13.80;97.30
4755;DHT22;2391;47.212;7.542;2023-02-23T11:58:58;13.80;96.90
4755;DHT22;2391;47.212;7.542;2023-02-23T12:01:41;13.80;97.00
4755;DHT22;2391;47.212;7.542;2023-02-23T12:07:17;13.70;96.30
4755;DHT22;2391;47.212;7.542;2023-02-23T12:09:25;13.60;96.40
4755;DHT22;2391;47.212;7.542;2023-02-23T12:12:14;13.50;96.70
4755;DHT22;2391;47.212;7.542;2023-02-23T12:14:47;13.60;96.60
4755;DHT22;2391;47.212;7.542;2023-02-23T12:17:26;13.70;96.70
4755;DHT22;2391;47.212;7.542;2023-02-23T12:23:03;13.50;96.70
4755;DHT22;2391;47.212;7.542;2023-02-23T12:33:44;13.60;96.70
4755;DHT22;2391;47.212;7.542;2023-02-23T12:41:51;14.00;96.40
4755;DHT22;2391;47.212;7.542;2023-02-23T12:50:10;14.00;96.10
4755;DHT22;2391;47.212;7.542;2023-02-23T12:52:41;13.90;96.10
4755;DHT22;2391;47.212;7.542;2023-02-23T12:55:09;13.90;95.60
4755;DHT22;2391;47.212;7.542;2023-02-23T12:58:04;13.90;95.70
4755;DHT22;2391;47.212;7.542;2023-02-23T13:03:35;14.10;95.60
4755;DHT22;2391;47.212;7.542;2023-02-23T13:16:50;14.50;95.30
4755;DHT22;2391;47.212;7.542;2023-02-23T13:19:25;14.50;95.30
4755;DHT22;2391;47.212;7.542;2023-02-23T13:22:18;14.60;95.20
4755;DHT22;2391;47.212;7.542;2023-02-23T13:24:40;14.70;94.40
4755;DHT22;2391;47.212;7.542;2023-02-23T13:27:14;14.70;93.90
4755;DHT22;2391;47.212;7.542;2023-02-23T13:29:42;14.80;94.00
4755;DHT22;2391;47.212;7.542;2023-02-23T13:32:18;14.80;93.80
4755;DHT22;2391;47.212;7.542;2023-02-23T13:34:51;14.80;92.90
4755;DHT22;2391;47.212;7.542;2023-02-23T13:37:21;14.70;93.10
4755;DHT22;2391;47.212;7.542;2023-02-23T13:45:41;14.50;92.80
4755;DHT22;2391;47.212;7.542;2023-02-23T13:48:14;14.40;93.00
4755;DHT22;2391;47.212;7.542;2023-02-23T13:50:43;14.40;93.10
4755;DHT22;2391;47.212;7.542;2023-02-23T13:55:57;14.60;93.10
4755;DHT22;2391;47.212;7.542;2023-02-23T13:58:29;14.60;92.80
4755;DHT22;2391;47.212;7.542;2023-02-23T14:01:10;14.70;93.00
4755;DHT22;2391;47.212;7.542;2023-02-23T14:06:20;14.80;92.70
4755;DHT22;2391;47.212;7.542;2023-02-23T14:08:56;15.00;92.70
4755;DHT22;2391;47.212;7.542;2023-02-23T14:11:34;15.10;92.10
4755;DHT22;2391;47.212;7.542;2023-02-23T14:14:01;15.10;92.20
4755;DHT22;2391;47.212;7.542;2023-02-23T14:16:28;15.10;92.20
4755;DHT22;2391;47.212;7.542;2023-02-23T14:19:29;15.10;92.40
4755;DHT22;2391;47.212;7.542;2023-02-23T14:21:58;15.10;92.20
4755;DHT22;2391;47.212;7.542;2023-02-23T14:24:25;15.10;92.50
4755;DHT22;2391;47.212;7.542;2023-02-23T14:29:43;15.20;92.00
4755;DHT22;2391;47.212;7.542;2023-02-23T14:34:48;15.10;91.20
4755;DHT22;2391;47.212;7.542;2023-02-23T14:40:04;15.10;91.90
4755;DHT22;2391;47.212;7.542;2023-02-23T14:42:30;15.10;91.70
4755;DHT22;2391;47.212;7.542;2023-02-23T14:45:02;15.20;91.70
4755;DHT22;2391;47.212;7.542;2023-02-23T14:47:26;15.20;91.70
4755;DHT22;2391;47.212;7.542;2023-02-23T14:49:58;15.30;91.80
4755;DHT22;2391;47.212;7.542;2023-02-23T14:52:34;15.20;92.00
4755;DHT22;2391;47.212;7.542;2023-02-23T14:57:42;15.10;91.80
4755;DHT22;2391;47.212;7.542;2023-02-23T15:03:05;15.10;91.70
4755;DHT22;2391;47.212;7.542;2023-02-23T15:05:45;15.10;91.80
4755;DHT22;2391;47.212;7.542;2023-02-23T15:08:16;15.20;91.90
4755;DHT22;2391;47.212;7.542;2023-02-23T15:10:48;15.40;91.90
4755;DHT22;2391;47.212;7.542;2023-02-23T15:15:55;15.40;91.40
4755;DHT22;2391;47.212;7.542;2023-02-23T15:18:31;15.40;91.40
4755;DHT22;2391;47.212;7.542;2023-02-23T15:20:57;15.40;91.40
4755;DHT22;2391;47.212;7.542;2023-02-23T15:23:23;15.40;91.00
4755;DHT22;2391;47.212;7.542;2023-02-23T15:25:49;15.40;90.60
4755;DHT22;2391;47.212;7.542;2023-02-23T15:28:21;15.40;90.40
4755;DHT22;2391;47.212;7.542;2023-02-23T15:30:49;15.40;90.60
4755;DHT22;2391;47.212;7.542;2023-02-23T15:33:17;15.40;90.20
4755;DHT22;2391;47.212;7.542;2023-02-23T15:36:35;15.30;90.10
4755;DHT22;2391;47.212;7.542;2023-02-23T15:38:27;15.40;90.40
4755;DHT22;2391;47.212;7.542;2023-02-23T15:40:56;15.40;90.30
4755;DHT22;2391;47.212;7.542;2023-02-23T15:43:22;15.40;90.30
4755;DHT22;2391;47.212;7.542;2023-02-23T15:45:50;15.50;90.50
4755;DHT22;2391;47.212;7.542;2023-02-23T15:48:20;15.50;89.80
4755;DHT22;2391;47.212;7.542;2023-02-23T15:50:49;15.50;89.70
4755;DHT22;2391;47.212;7.542;2023-02-23T15:53:22;15.50;89.90
4755;DHT22;2391;47.212;7.542;2023-02-23T15:55:47;15.50;89.60
4755;DHT22;2391;47.212;7.542;2023-02-23T15:58:31;15.50;89.40
4755;DHT22;2391;47.212;7.542;2023-02-23T16:00:59;15.40;89.40
4755;DHT22;2391;47.212;7.542;2023-02-23T16:03:30;15.40;89.60
4755;DHT22;2391;47.212;7.542;2023-02-23T16:06:05;15.40;88.90
4755;DHT22;2391;47.212;7.542;2023-02-23T16:08:32;15.40;89.40
4755;DHT22;2391;47.212;7.542;2023-02-23T16:11:11;15.40;88.90
4755;DHT22;2391;47.212;7.542;2023-02-23T16:13:42;15.30;88.20
4755;DHT22;2391;47.212;7.542;2023-02-23T16:16:09;15.30;88.90
4755;DHT22;2391;47.212;7.542;2023-02-23T16:18:40;15.30;89.70
4755;DHT22;2391;47.212;7.542;2023-02-23T16:21:10;15.30;90.00
4755;DHT22;2391;47.212;7.542;2023-02-23T16:23:44;15.40;90.00
4755;DHT22;2391;47.212;7.542;2023-02-23T16:26:30;15.40;90.00
4755;DHT22;2391;47.212;7.542;2023-02-23T16:29:01;15.50;90.20
4755;DHT22;2391;47.212;7.542;2023-02-23T16:31:49;15.50;90.30
4755;DHT22;2391;47.212;7.542;2023-02-23T16:34:24;15.50;90.20
4755;DHT22;2391;47.212;7.542;2023-02-23T16:36:56;15.50;90.20
4755;DHT22;2391;47.212;7.542;2023-02-23T16:39:24;15.50;90.40
4755;DHT22;2391;47.212;7.542;2023-02-23T16:41:51;15.50;90.60
4755;DHT22;2391;47.212;7.542;2023-02-23T16:44:18;15.50;90.80
4755;DHT22;2391;47.212;7.542;2023-02-23T16:49:32;15.50;91.00
4755;DHT22;2391;47.212;7.542;2023-02-23T16:51:58;15.50;91.00
4755;DHT22;2391;47.212;7.542;2023-02-23T16:54:25;15.50;91.10
4755;DHT22;2391;47.212;7.542;2023-02-23T16:56:51;15.50;91.40
4755;DHT22;2391;47.212;7.542;2023-02-23T16:59:21;15.50;91.40
4755;DHT22;2391;47.212;7.542;2023-02-23T17:01:48;15.50;91.40
4755;DHT22;2391;47.212;7.542;2023-02-23T17:04:17;15.50;91.60
4755;DHT22;2391;47.212;7.542;2023-02-23T17:06:44;15.50;91.70
4755;DHT22;2391;47.212;7.542;2023-02-23T17:09:12;15.50;91.80
4755;DHT22;2391;47.212;7.542;2023-02-23T17:11:39;15.40;91.90
4755;DHT22;2391;47.212;7.542;2023-02-23T17:14:06;15.40;92.00
4755;DHT22;2391;47.212;7.542;2023-02-23T17:16:32;15.30;92.00
4755;DHT22;2391;47.212;7.542;2023-02-23T17:18:57;15.30;92.10
4755;DHT22;2391;47.212;7.542;2023-02-23T17:21:24;15.30;92.20
4755;DHT22;2391;47.212;7.542;2023-02-23T17:23:51;15.30;92.30
4755;DHT22;2391;47.212;7.542;2023-02-23T17:26:22;15.20;92.30
4755;DHT22;2391;47.212;7.542;2023-02-23T17:28:48;15.10;92.30
4755;DHT22;2391;47.212;7.542;2023-02-23T17:31:16;15.10;92.40
4755;DHT22;2391;47.212;7.542;2023-02-23T17:33:43;15.10;92.50
4755;DHT22;2391;47.212;7.542;2023-02-23T17:36:14;15.10;92.50
4755;DHT22;2391;47.212;7.542;2023-02-23T17:38:39;15.00;92.50
4755;DHT22;2391;47.212;7.542;2023-02-23T17:41:09;15.00;92.50
4755;DHT22;2391;47.212;7.542;2023-02-23T17:43:36;15.00;92.50
4755;DHT22;2391;47.212;7.542;2023-02-23T17:46:02;14.90;92.60
4755;DHT22;2391;47.212;7.542;2023-02-23T17:48:28;14.90;92.60
4755;DHT22;2391;47.212;7.542;2023-02-23T17:50:56;14.80;92.70
4755;DHT22;2391;47.212;7.542;2023-02-23T17:53:24;14.70;92.60
4755;DHT22;2391;47.212;7.542;2023-02-23T17:55:51;14.70;92.70
4755;DHT22;2391;47.212;7.542;2023-02-23T17:58:17;14.60;92.70
4755;DHT22;2391;47.212;7.542;2023-02-23T18:00:42;14.60;92.70
4755;DHT22;2391;47.212;7.542;2023-02-23T18:03:08;14.60;92.70
4755;DHT22;2391;47.212;7.542;2023-02-23T18:05:34;14.60;92.80
4755;DHT22;2391;47.212;7.542;2023-02-23T18:08:00;14.50;92.80
4755;DHT22;2391;47.212;7.542;2023-02-23T18:10:25;14.50;92.80
4755;DHT22;2391;47.212;7.542;2023-02-23T18:12:52;14.40;92.80
4755;DHT22;2391;47.212;7.542;2023-02-23T18:15:18;14.40;92.80
4755;DHT22;2391;47.212;7.542;2023-02-23T18:17:46;14.40;92.80
4755;DHT22;2391;47.212;7.542;2023-02-23T18:20:12;14.30;93.00
4755;DHT22;2391;47.212;7.542;2023-02-23T18:22:40;14.30;92.80
4755;DHT22;2391;47.212;7.542;2023-02-23T18:25:07;14.30;92.80
4755;DHT22;2391;47.212;7.542;2023-02-23T18:27:34;14.20;92.80
4755;DHT22;2391;47.212;7.542;2023-02-23T18:30:00;14.20;92.90
4755;DHT22;2391;47.212;7.542;2023-02-23T18:32:25;14.10;92.90
4755;DHT22;2391;47.212;7.542;2023-02-23T18:34:51;14.10;92.90
4755;DHT22;2391;47.212;7.542;2023-02-23T18:37:17;14.00;92.90
4755;DHT22;2391;47.212;7.542;2023-02-23T18:39:44;14.00;93.00
4755;DHT22;2391;47.212;7.542;2023-02-23T18:42:10;13.90;93.00
4755;DHT22;2391;47.212;7.542;2023-02-23T18:44:36;13.90;93.00
4755;DHT22;2391;47.212;7.542;2023-02-23T18:47:01;13.80;93.00
4755;DHT22;2391;47.212;7.542;2023-02-23T18:49:27;13.80;93.10
4755;DHT22;2391;47.212;7.542;2023-02-23T18:51:53;13.80;93.10
4755;DHT22;2391;47.212;7.542;2023-02-23T18:54:19;13.70;93.10
4755;DHT22;2391;47.212;7.542;2023-02-23T18:56:47;13.70;93.10
4755;DHT22;2391;47.212;7.542;2023-02-23T18:59:14;13.60;93.10
4755;DHT22;2391;47.212;7.542;2023-02-23T19:01:42;13.60;93.20
4755;DHT22;2391;47.212;7.542;2023-02-23T19:04:10;13.60;93.20
4755;DHT22;2391;47.212;7.542;2023-02-23T19:06:36;13.50;93.20
4755;DHT22;2391;47.212;7.542;2023-02-23T19:09:04;13.50;93.20
4755;DHT22;2391;47.212;7.542;2023-02-23T19:11:33;13.40;93.20